sensor_id;sensor_type;location;lat;lon;timestamp;temperature;humidity
75838;SHT30;64480;52.040;113.502;2022-12-07T00:01:53;-8.44;55.39
75838;SHT30;64480;52.040;113.502;2022-12-07T00:04:57;-8.48;55.61
75838;SHT30;64480;52.040;113.502;2022-12-07T00:08:00;-8.47;55.70
75838;SHT30;64480;52.040;113.502;2022-12-07T00:11:10;-8.51;55.69
75838;SHT30;64480;52.040;113.502;2022-12-07T00:14:15;-8.55;56.16
75838;SHT30;64480;52.040;113.502;2022-12-07T00:17:18;-8.54;55.99
75838;SHT30;64480;52.040;113.502;2022-12-07T00:20:21;-8.54;56.18
75838;SHT30;64480;52.040;113.502;2022-12-07T00:23:29;-8.58;56.31
75838;SHT30;64480;52.040;113.502;2022-12-07T00:26:35;-8.58;56.44
75838;SHT30;64480;52.040;113.502;2022-12-07T00:29:40;-8.57;56.49
75838;SHT30;64480;52.040;113.502;2022-12-07T00:32:43;-8.58;56.63
75838;SHT30;64480;52.040;113.502;2022-12-07T00:35:46;-8.57;56.60
75838;SHT30;64480;52.040;113.502;2022-12-07T00:38:52;-8.52;56.36
75838;SHT30;64480;52.040;113.502;2022-12-07T00:47:27;-8.37;56.07
75838;SHT30;64480;52.040;113.502;2022-12-07T00:55:20;-8.20;55.12
75838;SHT30;64480;52.040;113.502;2022-12-07T00:59:36;-8.13;55.51
75838;SHT30;64480;52.040;113.502;2022-12-07T01:08:01;-7.99;54.72
75838;SHT30;64480;52.040;113.502;2022-12-07T01:29:26;-7.03;52.70
75838;SHT30;64480;52.040;113.502;2022-12-07T01:32:29;-6.94;52.55
75838;SHT30;64480;52.040;113.502;2022-12-07T01:35:33;-6.89;52.43
75838;SHT30;64480;52.040;113.502;2022-12-07T01:38:37;-6.77;52.12
75838;SHT30;64480;52.040;113.502;2022-12-07T01:41:41;-6.73;52.06
75838;SHT30;64480;52.040;113.502;2022-12-07T01:48:24;-6.70;52.34
75838;SHT30;64480;52.040;113.502;2022-12-07T01:51:29;-6.53;52.22
75838;SHT30;64480;52.040;113.502;2022-12-07T01:54:33;-6.48;51.61
75838;SHT30;64480;52.040;113.502;2022-12-07T01:57:40;-6.40;51.58
75838;SHT30;64480;52.040;113.502;2022-12-07T02:00:44;-6.33;51.66
75838;SHT30;64480;52.040;113.502;2022-12-07T02:03:48;-6.18;51.15
75838;SHT30;64480;52.040;113.502;2022-12-07T02:06:52;-6.03;51.12
75838;SHT30;64480;52.040;113.502;2022-12-07T02:09:57;-5.98;50.65
75838;SHT30;64480;52.040;113.502;2022-12-07T02:13:27;-5.98;50.59
75838;SHT30;64480;52.040;113.502;2022-12-07T02:16:42;-5.91;50.64
75838;SHT30;64480;52.040;113.502;2022-12-07T02:36:19;-5.67;49.77
75838;SHT30;64480;52.040;113.502;2022-12-07T02:39:34;-5.63;50.21
75838;SHT30;64480;52.040;113.502;2022-12-07T02:42:46;-5.62;49.70
75838;SHT30;64480;52.040;113.502;2022-12-07T02:45:52;-5.50;49.69
75838;SHT30;64480;52.040;113.502;2022-12-07T02:48:57;-5.39;49.68
75838;SHT30;64480;52.040;113.502;2022-12-07T02:52:02;-5.29;49.41
75838;SHT30;64480;52.040;113.502;2022-12-07T02:55:07;-5.16;48.91
75838;SHT30;64480;52.040;113.502;2022-12-07T03:11:08;-5.13;49.00
75838;SHT30;64480;52.040;113.502;2022-12-07T03:14:22;-5.11;49.04
75838;SHT30;64480;52.040;113.502;2022-12-07T03:17:29;-5.13;49.03
75838;SHT30;64480;52.040;113.502;2022-12-07T03:20:35;-5.07;49.19
75838;SHT30;64480;52.040;113.502;2022-12-07T03:23:41;-5.04;49.20
75838;SHT30;64480;52.040;113.502;2022-12-07T03:26:51;-5.01;48.87
75838;SHT30;64480;52.040;113.502;2022-12-07T03:30:02;-4.91;48.67
75838;SHT30;64480;52.040;113.502;2022-12-07T03:33:18;-5.04;48.56
75838;SHT30;64480;52.040;113.502;2022-12-07T03:36:34;-5.09;48.91
75838;SHT30;64480;52.040;113.502;2022-12-07T03:39:46;-5.02;48.74
75838;SHT30;64480;52.040;113.502;2022-12-07T03:43:09;-4.99;48.71
75838;SHT30;64480;52.040;113.502;2022-12-07T03:51:16;-5.09;48.37
75838;SHT30;64480;52.040;113.502;2022-12-07T03:54:39;-5.07;48.84
75838;SHT30;64480;52.040;113.502;2022-12-07T03:59:03;-5.12;48.34
75838;SHT30;64480;52.040;113.502;2022-12-07T04:03:02;-5.11;48.52
75838;SHT30;64480;52.040;113.502;2022-12-07T04:06:39;-4.92;47.83
75838;SHT30;64480;52.040;113.502;2022-12-07T04:10:45;-4.91;48.31
75838;SHT30;64480;52.040;113.502;2022-12-07T04:14:24;-4.77;47.64
75838;SHT30;64480;52.040;113.502;2022-12-07T04:17:28;-4.62;47.70
75838;SHT30;64480;52.040;113.502;2022-12-07T04:20:32;-4.67;47.08
75838;SHT30;64480;52.040;113.502;2022-12-07T04:23:35;-4.66;47.51
75838;SHT30;64480;52.040;113.502;2022-12-07T04:26:38;-4.71;48.01
75838;SHT30;64480;52.040;113.502;2022-12-07T04:29:42;-4.69;47.56
75838;SHT30;64480;52.040;113.502;2022-12-07T04:32:45;-4.67;47.39
75838;SHT30;64480;52.040;113.502;2022-12-07T04:35:48;-4.50;47.29
75838;SHT30;64480;52.040;113.502;2022-12-07T04:38:53;-4.46;47.19
75838;SHT30;64480;52.040;113.502;2022-12-07T04:42:00;-4.42;46.57
75838;SHT30;64480;52.040;113.502;2022-12-07T04:45:05;-4.42;46.84
75838;SHT30;64480;52.040;113.502;2022-12-07T04:48:08;-4.59;45.97
75838;SHT30;64480;52.040;113.502;2022-12-07T04:51:11;-4.67;46.67
75838;SHT30;64480;52.040;113.502;2022-12-07T04:54:16;-4.70;46.57
75838;SHT30;64480;52.040;113.502;2022-12-07T04:57:19;-4.63;46.75
75838;SHT30;64480;52.040;113.502;2022-12-07T05:00:22;-4.53;47.45
75838;SHT30;64480;52.040;113.502;2022-12-07T05:03:27;-4.42;47.08
75838;SHT30;64480;52.040;113.502;2022-12-07T05:06:30;-4.21;47.00
75838;SHT30;64480;52.040;113.502;2022-12-07T05:09:36;-4.15;46.00
75838;SHT30;64480;52.040;113.502;2022-12-07T05:12:40;-4.19;45.91
75838;SHT30;64480;52.040;113.502;2022-12-07T05:15:43;-4.07;46.02
75838;SHT30;64480;52.040;113.502;2022-12-07T05:18:46;-3.99;45.43
75838;SHT30;64480;52.040;113.502;2022-12-07T05:21:50;-4.09;46.02
75838;SHT30;64480;52.040;113.502;2022-12-07T05:24:54;-4.19;45.70
75838;SHT30;64480;52.040;113.502;2022-12-07T05:27:57;-4.25;46.62
75838;SHT30;64480;52.040;113.502;2022-12-07T05:31:01;-4.19;46.09
75838;SHT30;64480;52.040;113.502;2022-12-07T05:34:06;-4.18;46.24
75838;SHT30;64480;52.040;113.502;2022-12-07T05:37:10;-4.11;46.33
75838;SHT30;64480;52.040;113.502;2022-12-07T05:40:13;-4.04;45.79
75838;SHT30;64480;52.040;113.502;2022-12-07T05:43:17;-4.04;45.92
75838;SHT30;64480;52.040;113.502;2022-12-07T05:46:20;-4.09;46.23
75838;SHT30;64480;52.040;113.502;2022-12-07T05:49:24;-4.12;46.29
75838;SHT30;64480;52.040;113.502;2022-12-07T05:52:27;-4.11;46.58
75838;SHT30;64480;52.040;113.502;2022-12-07T05:55:30;-4.12;46.37
75838;SHT30;64480;52.040;113.502;2022-12-07T05:58:36;-4.19;46.03
75838;SHT30;64480;52.040;113.502;2022-12-07T06:02:01;-4.32;46.34
75838;SHT30;64480;52.040;113.502;2022-12-07T06:05:05;-4.35;46.89
75838;SHT30;64480;52.040;113.502;2022-12-07T06:08:08;-4.29;46.83
75838;SHT30;64480;52.040;113.502;2022-12-07T06:11:12;-4.22;46.87
75838;SHT30;64480;52.040;113.502;2022-12-07T06:14:33;-4.16;46.47
75838;SHT30;64480;52.040;113.502;2022-12-07T06:17:37;-4.22;47.02
75838;SHT30;64480;52.040;113.502;2022-12-07T06:20:40;-4.21;46.84
75838;SHT30;64480;52.040;113.502;2022-12-07T06:23:43;-4.19;46.40
75838;SHT30;64480;52.040;113.502;2022-12-07T06:26:46;-4.18;46.40
75838;SHT30;64480;52.040;113.502;2022-12-07T06:29:50;-4.14;46.43
75838;SHT30;64480;52.040;113.502;2022-12-07T06:32:53;-4.21;46.40
75838;SHT30;64480;52.040;113.502;2022-12-07T06:35:56;-4.26;45.93
75838;SHT30;64480;52.040;113.502;2022-12-07T06:38:59;-4.30;45.89
75838;SHT30;64480;52.040;113.502;2022-12-07T06:42:02;-4.37;45.41
75838;SHT30;64480;52.040;113.502;2022-12-07T06:45:06;-4.46;45.78
75838;SHT30;64480;52.040;113.502;2022-12-07T06:48:09;-4.53;46.24
75838;SHT30;64480;52.040;113.502;2022-12-07T06:51:13;-4.56;46.33
75838;SHT30;64480;52.040;113.502;2022-12-07T06:54:16;-4.62;45.98
75838;SHT30;64480;52.040;113.502;2022-12-07T06:57:20;-4.71;46.47
75838;SHT30;64480;52.040;113.502;2022-12-07T07:00:23;-4.70;47.18
75838;SHT30;64480;52.040;113.502;2022-12-07T07:03:26;-4.71;47.15
75838;SHT30;64480;52.040;113.502;2022-12-07T07:06:29;-4.71;46.84
75838;SHT30;64480;52.040;113.502;2022-12-07T07:09:33;-4.80;46.84
75838;SHT30;64480;52.040;113.502;2022-12-07T07:12:36;-4.85;46.93
75838;SHT30;64480;52.040;113.502;2022-12-07T07:15:39;-4.90;47.28
75838;SHT30;64480;52.040;113.502;2022-12-07T07:18:42;-4.94;47.35
75838;SHT30;64480;52.040;113.502;2022-12-07T07:21:46;-4.95;47.33
75838;SHT30;64480;52.040;113.502;2022-12-07T07:24:49;-4.97;47.72
75838;SHT30;64480;52.040;113.502;2022-12-07T07:28:08;-5.01;47.59
75838;SHT30;64480;52.040;113.502;2022-12-07T07:31:11;-5.05;47.86
75838;SHT30;64480;52.040;113.502;2022-12-07T07:34:15;-5.09;48.49
75838;SHT30;64480;52.040;113.502;2022-12-07T07:37:18;-5.12;48.74
75838;SHT30;64480;52.040;113.502;2022-12-07T07:40:24;-5.11;49.35
75838;SHT30;64480;52.040;113.502;2022-12-07T07:43:27;-5.13;48.75
75838;SHT30;64480;52.040;113.502;2022-12-07T07:46:30;-5.12;48.23
75838;SHT30;64480;52.040;113.502;2022-12-07T07:49:36;-5.09;48.76
75838;SHT30;64480;52.040;113.502;2022-12-07T07:52:45;-5.01;48.52
75838;SHT30;64480;52.040;113.502;2022-12-07T07:55:53;-4.95;49.16
75838;SHT30;64480;52.040;113.502;2022-12-07T07:58:59;-4.92;48.71
75838;SHT30;64480;52.040;113.502;2022-12-07T08:02:02;-4.83;48.21
75838;SHT30;64480;52.040;113.502;2022-12-07T08:05:06;-4.87;47.60
75838;SHT30;64480;52.040;113.502;2022-12-07T08:08:10;-4.84;48.61
75838;SHT30;64480;52.040;113.502;2022-12-07T08:11:13;-4.80;48.27
75838;SHT30;64480;52.040;113.502;2022-12-07T08:14:16;-4.77;48.64
75838;SHT30;64480;52.040;113.502;2022-12-07T08:17:20;-4.81;48.40
75838;SHT30;64480;52.040;113.502;2022-12-07T08:20:23;-4.80;48.11
75838;SHT30;64480;52.040;113.502;2022-12-07T08:23:27;-4.76;49.16
75838;SHT30;64480;52.040;113.502;2022-12-07T08:26:41;-4.80;48.07
75838;SHT30;64480;52.040;113.502;2022-12-07T08:29:44;-4.71;48.34
75838;SHT30;64480;52.040;113.502;2022-12-07T08:32:48;-4.71;48.16
75838;SHT30;64480;52.040;113.502;2022-12-07T08:35:51;-4.70;48.73
75838;SHT30;64480;52.040;113.502;2022-12-07T08:38:55;-4.74;48.82
75838;SHT30;64480;52.040;113.502;2022-12-07T08:42:18;-4.74;48.93
75838;SHT30;64480;52.040;113.502;2022-12-07T08:45:22;-4.76;49.35
75838;SHT30;64480;52.040;113.502;2022-12-07T08:48:29;-4.79;49.36
75838;SHT30;64480;52.040;113.502;2022-12-07T08:51:33;-4.87;49.40
75838;SHT30;64480;52.040;113.502;2022-12-07T08:54:38;-4.97;49.64
75838;SHT30;64480;52.040;113.502;2022-12-07T08:57:42;-5.08;49.65
75838;SHT30;64480;52.040;113.502;2022-12-07T09:00:53;-5.16;49.87
75838;SHT30;64480;52.040;113.502;2022-12-07T09:04:04;-5.25;50.25
75838;SHT30;64480;52.040;113.502;2022-12-07T09:07:07;-5.28;50.39
75838;SHT30;64480;52.040;113.502;2022-12-07T09:10:19;-5.30;50.62
75838;SHT30;64480;52.040;113.502;2022-12-07T09:13:22;-5.42;50.35
75838;SHT30;64480;52.040;113.502;2022-12-07T09:16:26;-5.52;50.71
75838;SHT30;64480;52.040;113.502;2022-12-07T09:19:31;-5.57;50.94
75838;SHT30;64480;52.040;113.502;2022-12-07T09:22:34;-5.60;51.25
75838;SHT30;64480;52.040;113.502;2022-12-07T09:25:38;-5.63;50.76
75838;SHT30;64480;52.040;113.502;2022-12-07T09:28:41;-5.66;50.89
75838;SHT30;64480;52.040;113.502;2022-12-07T09:31:44;-5.70;50.84
75838;SHT30;64480;52.040;113.502;2022-12-07T09:34:48;-5.75;51.06
75838;SHT30;64480;52.040;113.502;2022-12-07T09:37:51;-5.71;50.46
75838;SHT30;64480;52.040;113.502;2022-12-07T09:40:55;-5.75;50.32
75838;SHT30;64480;52.040;113.502;2022-12-07T09:44:13;-5.80;50.39
75838;SHT30;64480;52.040;113.502;2022-12-07T09:47:17;-5.81;49.97
75838;SHT30;64480;52.040;113.502;2022-12-07T09:50:23;-5.80;49.89
75838;SHT30;64480;52.040;113.502;2022-12-07T09:53:33;-5.81;50.42
75838;SHT30;64480;52.040;113.502;2022-12-07T09:56:37;-5.84;50.47
75838;SHT30;64480;52.040;113.502;2022-12-07T09:59:40;-5.85;50.18
75838;SHT30;64480;52.040;113.502;2022-12-07T10:02:51;-5.85;50.00
75838;SHT30;64480;52.040;113.502;2022-12-07T10:05:56;-5.85;50.32
75838;SHT30;64480;52.040;113.502;2022-12-07T10:08:59;-5.82;50.62
75838;SHT30;64480;52.040;113.502;2022-12-07T10:12:07;-5.84;51.35
75838;SHT30;64480;52.040;113.502;2022-12-07T10:15:12;-5.88;51.74
75838;SHT30;64480;52.040;113.502;2022-12-07T10:18:25;-5.91;51.94
75838;SHT30;64480;52.040;113.502;2022-12-07T10:21:28;-5.91;52.28
75838;SHT30;64480;52.040;113.502;2022-12-07T10:24:31;-5.90;52.37
75838;SHT30;64480;52.040;113.502;2022-12-07T10:27:35;-5.88;52.34
75838;SHT30;64480;52.040;113.502;2022-12-07T10:31:01;-5.88;52.24
75838;SHT30;64480;52.040;113.502;2022-12-07T10:34:29;-5.90;52.10
75838;SHT30;64480;52.040;113.502;2022-12-07T10:37:41;-5.82;52.04
75838;SHT30;64480;52.040;113.502;2022-12-07T10:40:44;-5.75;51.97
75838;SHT30;64480;52.040;113.502;2022-12-07T10:43:53;-5.70;51.80
75838;SHT30;64480;52.040;113.502;2022-12-07T10:53:28;-5.71;51.64
75838;SHT30;64480;52.040;113.502;2022-12-07T10:57:06;-5.67;51.45
75838;SHT30;64480;52.040;113.502;2022-12-07T11:00:21;-5.71;51.52
75838;SHT30;64480;52.040;113.502;2022-12-07T11:03:54;-5.75;51.67
75838;SHT30;64480;52.040;113.502;2022-12-07T11:13:48;-5.88;51.98
75838;SHT30;64480;52.040;113.502;2022-12-07T11:17:26;-5.94;52.03
75838;SHT30;64480;52.040;113.502;2022-12-07T11:21:05;-6.01;52.26
75838;SHT30;64480;52.040;113.502;2022-12-07T11:37:40;-6.36;52.88
75838;SHT30;64480;52.040;113.502;2022-12-07T11:40:51;-6.40;52.80
75838;SHT30;64480;52.040;113.502;2022-12-07T11:44:01;-6.46;53.26
75838;SHT30;64480;52.040;113.502;2022-12-07T11:47:47;-6.54;53.35
75838;SHT30;64480;52.040;113.502;2022-12-07T11:50:57;-6.58;53.50
75838;SHT30;64480;52.040;113.502;2022-12-07T11:54:21;-6.60;53.32
75838;SHT30;64480;52.040;113.502;2022-12-07T11:57:44;-6.63;53.60
75838;SHT30;64480;52.040;113.502;2022-12-07T12:00:51;-6.63;53.71
75838;SHT30;64480;52.040;113.502;2022-12-07T12:04:23;-6.64;53.69
75838;SHT30;64480;52.040;113.502;2022-12-07T12:07:31;-6.58;53.63
75838;SHT30;64480;52.040;113.502;2022-12-07T12:11:05;-6.58;53.61
75838;SHT30;64480;52.040;113.502;2022-12-07T12:18:05;-6.56;53.30
75838;SHT30;64480;52.040;113.502;2022-12-07T12:21:16;-6.57;53.36
75838;SHT30;64480;52.040;113.502;2022-12-07T12:24:25;-6.61;53.57
75838;SHT30;64480;52.040;113.502;2022-12-07T12:27:34;-6.61;53.61
75838;SHT30;64480;52.040;113.502;2022-12-07T12:30:39;-6.68;53.75
75838;SHT30;64480;52.040;113.502;2022-12-07T12:33:51;-6.71;53.75
75838;SHT30;64480;52.040;113.502;2022-12-07T12:36:55;-6.75;53.79
75838;SHT30;64480;52.040;113.502;2022-12-07T12:43:46;-6.88;53.66
75838;SHT30;64480;52.040;113.502;2022-12-07T12:46:59;-6.91;53.61
75838;SHT30;64480;52.040;113.502;2022-12-07T12:53:28;-6.95;53.52
75838;SHT30;64480;52.040;113.502;2022-12-07T13:00:21;-7.01;53.70
75838;SHT30;64480;52.040;113.502;2022-12-07T13:03:29;-7.02;53.80
75838;SHT30;64480;52.040;113.502;2022-12-07T13:07:10;-7.01;53.86
75838;SHT30;64480;52.040;113.502;2022-12-07T13:24:31;-7.03;54.11
75838;SHT30;64480;52.040;113.502;2022-12-07T13:28:01;-7.03;54.17
75838;SHT30;64480;52.040;113.502;2022-12-07T13:34:45;-7.06;54.17
75838;SHT30;64480;52.040;113.502;2022-12-07T13:37:54;-7.09;54.19
75838;SHT30;64480;52.040;113.502;2022-12-07T13:41:15;-7.08;54.18
75838;SHT30;64480;52.040;113.502;2022-12-07T13:44:56;-7.03;54.09
75838;SHT30;64480;52.040;113.502;2022-12-07T13:48:06;-7.01;54.02
75838;SHT30;64480;52.040;113.502;2022-12-07T13:51:23;-6.95;53.89
75838;SHT30;64480;52.040;113.502;2022-12-07T13:54:30;-6.94;53.86
75838;SHT30;64480;52.040;113.502;2022-12-07T13:57:35;-6.92;53.59
75838;SHT30;64480;52.040;113.502;2022-12-07T14:00:44;-6.87;53.59
75838;SHT30;64480;52.040;113.502;2022-12-07T14:03:48;-6.80;53.39
75838;SHT30;64480;52.040;113.502;2022-12-07T14:06:53;-6.70;53.25
75838;SHT30;64480;52.040;113.502;2022-12-07T14:10:05;-6.65;53.30
75838;SHT30;64480;52.040;113.502;2022-12-07T14:13:39;-6.67;52.92
75838;SHT30;64480;52.040;113.502;2022-12-07T14:16:54;-6.68;53.07
75838;SHT30;64480;52.040;113.502;2022-12-07T14:20:02;-6.65;52.59
75838;SHT30;64480;52.040;113.502;2022-12-07T14:23:24;-6.64;52.89
75838;SHT30;64480;52.040;113.502;2022-12-07T14:26:27;-6.65;52.58
75838;SHT30;64480;52.040;113.502;2022-12-07T14:29:32;-6.71;52.28
75838;SHT30;64480;52.040;113.502;2022-12-07T14:32:37;-6.70;52.49
75838;SHT30;64480;52.040;113.502;2022-12-07T14:35:40;-6.77;52.41
75838;SHT30;64480;52.040;113.502;2022-12-07T14:38:44;-6.84;52.77
75838;SHT30;64480;52.040;113.502;2022-12-07T14:41:47;-6.85;52.85
75838;SHT30;64480;52.040;113.502;2022-12-07T14:44:53;-6.87;52.89
75838;SHT30;64480;52.040;113.502;2022-12-07T14:47:56;-6.87;52.55
75838;SHT30;64480;52.040;113.502;2022-12-07T14:51:20;-6.85;52.59
75838;SHT30;64480;52.040;113.502;2022-12-07T14:54:43;-6.87;52.72
75838;SHT30;64480;52.040;113.502;2022-12-07T14:57:48;-6.84;52.74
75838;SHT30;64480;52.040;113.502;2022-12-07T15:00:51;-6.85;52.35
75838;SHT30;64480;52.040;113.502;2022-12-07T15:03:55;-6.82;52.46
75838;SHT30;64480;52.040;113.502;2022-12-07T15:07:02;-6.82;52.34
75838;SHT30;64480;52.040;113.502;2022-12-07T15:10:09;-6.82;52.45
75838;SHT30;64480;52.040;113.502;2022-12-07T15:13:20;-6.84;52.17
75838;SHT30;64480;52.040;113.502;2022-12-07T15:16:43;-6.81;52.28
75838;SHT30;64480;52.040;113.502;2022-12-07T15:20:13;-6.78;52.16
75838;SHT30;64480;52.040;113.502;2022-12-07T15:23:17;-6.74;52.26
75838;SHT30;64480;52.040;113.502;2022-12-07T15:26:20;-6.71;52.16
75838;SHT30;64480;52.040;113.502;2022-12-07T15:29:23;-6.64;51.87
75838;SHT30;64480;52.040;113.502;2022-12-07T15:32:26;-6.56;51.76
75838;SHT30;64480;52.040;113.502;2022-12-07T15:35:30;-6.51;51.52
75838;SHT30;64480;52.040;113.502;2022-12-07T15:38:33;-6.56;51.79
75838;SHT30;64480;52.040;113.502;2022-12-07T15:41:56;-6.51;52.06
75838;SHT30;64480;52.040;113.502;2022-12-07T15:45:00;-6.56;52.00
75838;SHT30;64480;52.040;113.502;2022-12-07T15:48:09;-6.53;51.91
75838;SHT30;64480;52.040;113.502;2022-12-07T15:51:30;-6.47;51.81
75838;SHT30;64480;52.040;113.502;2022-12-07T15:54:33;-6.46;52.03
75838;SHT30;64480;52.040;113.502;2022-12-07T15:57:37;-6.37;51.94
75838;SHT30;64480;52.040;113.502;2022-12-07T16:00:41;-6.36;51.63
75838;SHT30;64480;52.040;113.502;2022-12-07T16:03:45;-6.34;51.48
75838;SHT30;64480;52.040;113.502;2022-12-07T16:06:48;-6.36;51.62
75838;SHT30;64480;52.040;113.502;2022-12-07T16:09:53;-6.32;51.44
75838;SHT30;64480;52.040;113.502;2022-12-07T16:12:56;-6.29;51.29
75838;SHT30;64480;52.040;113.502;2022-12-07T16:16:10;-6.30;51.01
75838;SHT30;64480;52.040;113.502;2022-12-07T16:19:14;-6.30;50.63
75838;SHT30;64480;52.040;113.502;2022-12-07T16:22:17;-6.34;50.80
75838;SHT30;64480;52.040;113.502;2022-12-07T16:25:20;-6.41;50.98
75838;SHT30;64480;52.040;113.502;2022-12-07T16:28:24;-6.41;50.68
75838;SHT30;64480;52.040;113.502;2022-12-07T16:31:28;-6.47;50.80
75838;SHT30;64480;52.040;113.502;2022-12-07T16:34:34;-6.51;50.93
75838;SHT30;64480;52.040;113.502;2022-12-07T16:37:37;-6.53;50.77
75838;SHT30;64480;52.040;113.502;2022-12-07T16:40:40;-6.54;50.54
75838;SHT30;64480;52.040;113.502;2022-12-07T16:43:44;-6.54;50.51
75838;SHT30;64480;52.040;113.502;2022-12-07T16:46:47;-6.54;50.29
75838;SHT30;64480;52.040;113.502;2022-12-07T16:49:50;-6.57;50.57
75838;SHT30;64480;52.040;113.502;2022-12-07T16:52:54;-6.64;50.42
75838;SHT30;64480;52.040;113.502;2022-12-07T16:55:57;-6.71;50.23
75838;SHT30;64480;52.040;113.502;2022-12-07T16:59:01;-6.70;50.35
75838;SHT30;64480;52.040;113.502;2022-12-07T17:02:04;-6.75;50.32
75838;SHT30;64480;52.040;113.502;2022-12-07T17:05:09;-6.78;50.25
75838;SHT30;64480;52.040;113.502;2022-12-07T17:08:13;-6.80;50.50
75838;SHT30;64480;52.040;113.502;2022-12-07T17:11:18;-6.75;50.25
75838;SHT30;64480;52.040;113.502;2022-12-07T17:14:22;-6.82;50.33
75838;SHT30;64480;52.040;113.502;2022-12-07T17:17:52;-6.82;50.14
75838;SHT30;64480;52.040;113.502;2022-12-07T17:20:55;-6.81;50.45
75838;SHT30;64480;52.040;113.502;2022-12-07T17:24:08;-6.84;50.36
75838;SHT30;64480;52.040;113.502;2022-12-07T17:27:12;-6.87;50.34
75838;SHT30;64480;52.040;113.502;2022-12-07T17:30:15;-6.89;50.21
75838;SHT30;64480;52.040;113.502;2022-12-07T17:33:18;-6.94;50.27
75838;SHT30;64480;52.040;113.502;2022-12-07T17:36:25;-6.94;50.41
75838;SHT30;64480;52.040;113.502;2022-12-07T17:39:28;-6.99;50.46
75838;SHT30;64480;52.040;113.502;2022-12-07T17:42:32;-7.02;50.45
75838;SHT30;64480;52.040;113.502;2022-12-07T17:45:52;-7.09;50.63
75838;SHT30;64480;52.040;113.502;2022-12-07T17:48:57;-7.16;50.73
75838;SHT30;64480;52.040;113.502;2022-12-07T17:52:00;-7.27;51.02
75838;SHT30;64480;52.040;113.502;2022-12-07T17:55:22;-7.36;51.53
75838;SHT30;64480;52.040;113.502;2022-12-07T17:58:26;-7.46;51.70
75838;SHT30;64480;52.040;113.502;2022-12-07T18:01:29;-7.52;52.03
75838;SHT30;64480;52.040;113.502;2022-12-07T18:04:36;-7.61;52.11
75838;SHT30;64480;52.040;113.502;2022-12-07T18:07:43;-7.61;52.28
75838;SHT30;64480;52.040;113.502;2022-12-07T18:10:47;-7.61;52.38
75838;SHT30;64480;52.040;113.502;2022-12-07T18:13:50;-7.57;52.15
75838;SHT30;64480;52.040;113.502;2022-12-07T18:16:53;-7.51;51.91
75838;SHT30;64480;52.040;113.502;2022-12-07T18:19:57;-7.48;51.80
75838;SHT30;64480;52.040;113.502;2022-12-07T18:23:00;-7.51;51.89
75838;SHT30;64480;52.040;113.502;2022-12-07T18:26:03;-7.47;51.69
75838;SHT30;64480;52.040;113.502;2022-12-07T18:29:08;-7.44;51.70
75838;SHT30;64480;52.040;113.502;2022-12-07T18:32:12;-7.41;51.52
75838;SHT30;64480;52.040;113.502;2022-12-07T18:35:16;-7.40;51.60
75838;SHT30;64480;52.040;113.502;2022-12-07T18:38:22;-7.31;51.65
75838;SHT30;64480;52.040;113.502;2022-12-07T18:41:25;-7.29;51.40
75838;SHT30;64480;52.040;113.502;2022-12-07T18:44:28;-7.29;51.46
75838;SHT30;64480;52.040;113.502;2022-12-07T18:47:31;-7.31;51.51
75838;SHT30;64480;52.040;113.502;2022-12-07T18:50:35;-7.29;51.52
75838;SHT30;64480;52.040;113.502;2022-12-07T18:53:41;-7.29;51.56
75838;SHT30;64480;52.040;113.502;2022-12-07T18:56:47;-7.20;51.46
75838;SHT30;64480;52.040;113.502;2022-12-07T18:59:50;-7.20;51.53
75838;SHT30;64480;52.040;113.502;2022-12-07T19:02:54;-7.18;51.46
75838;SHT30;64480;52.040;113.502;2022-12-07T19:05:58;-7.16;51.34
75838;SHT30;64480;52.040;113.502;2022-12-07T19:09:02;-7.20;51.34
75838;SHT30;64480;52.040;113.502;2022-12-07T19:12:05;-7.16;51.52
75838;SHT30;64480;52.040;113.502;2022-12-07T19:15:10;-7.18;51.30
75838;SHT30;64480;52.040;113.502;2022-12-07T19:18:14;-7.18;51.30
75838;SHT30;64480;52.040;113.502;2022-12-07T19:21:17;-7.20;51.44
75838;SHT30;64480;52.040;113.502;2022-12-07T19:24:21;-7.18;51.35
75838;SHT30;64480;52.040;113.502;2022-12-07T19:27:25;-7.19;51.49
75838;SHT30;64480;52.040;113.502;2022-12-07T19:30:29;-7.19;51.41
75838;SHT30;64480;52.040;113.502;2022-12-07T19:33:32;-7.20;51.49
75838;SHT30;64480;52.040;113.502;2022-12-07T19:36:35;-7.16;51.35
75838;SHT30;64480;52.040;113.502;2022-12-07T19:39:40;-7.26;51.32
75838;SHT30;64480;52.040;113.502;2022-12-07T19:42:43;-7.39;51.58
75838;SHT30;64480;52.040;113.502;2022-12-07T19:45:46;-7.51;52.07
75838;SHT30;64480;52.040;113.502;2022-12-07T19:48:50;-7.62;52.45
75838;SHT30;64480;52.040;113.502;2022-12-07T19:51:57;-7.71;52.63
75838;SHT30;64480;52.040;113.502;2022-12-07T19:55:01;-7.75;52.88
75838;SHT30;64480;52.040;113.502;2022-12-07T19:58:04;-7.85;53.14
75838;SHT30;64480;52.040;113.502;2022-12-07T20:01:08;-7.88;53.37
75838;SHT30;64480;52.040;113.502;2022-12-07T20:04:14;-7.98;53.51
75838;SHT30;64480;52.040;113.502;2022-12-07T20:07:18;-7.98;53.40
75838;SHT30;64480;52.040;113.502;2022-12-07T20:10:21;-7.99;53.35
75838;SHT30;64480;52.040;113.502;2022-12-07T20:13:27;-7.99;53.30
75838;SHT30;64480;52.040;113.502;2022-12-07T20:16:30;-7.99;53.29
75838;SHT30;64480;52.040;113.502;2022-12-07T20:19:37;-7.99;53.38
75838;SHT30;64480;52.040;113.502;2022-12-07T20:22:41;-8.03;53.19
75838;SHT30;64480;52.040;113.502;2022-12-07T20:25:44;-8.02;53.24
75838;SHT30;64480;52.040;113.502;2022-12-07T20:28:47;-8.05;53.24
75838;SHT30;64480;52.040;113.502;2022-12-07T20:31:52;-8.06;53.25
75838;SHT30;64480;52.040;113.502;2022-12-07T20:34:55;-8.06;53.28
75838;SHT30;64480;52.040;113.502;2022-12-07T20:37:59;-8.09;53.27
75838;SHT30;64480;52.040;113.502;2022-12-07T20:41:07;-8.13;53.49
75838;SHT30;64480;52.040;113.502;2022-12-07T20:44:31;-8.10;53.32
75838;SHT30;64480;52.040;113.502;2022-12-07T20:47:35;-8.10;53.32
75838;SHT30;64480;52.040;113.502;2022-12-07T20:50:38;-8.13;53.30
75838;SHT30;64480;52.040;113.502;2022-12-07T20:53:43;-8.17;53.27
75838;SHT30;64480;52.040;113.502;2022-12-07T20:56:47;-8.14;53.20
75838;SHT30;64480;52.040;113.502;2022-12-07T20:59:50;-8.09;53.06
75838;SHT30;64480;52.040;113.502;2022-12-07T21:02:53;-8.10;52.92
75838;SHT30;64480;52.040;113.502;2022-12-07T21:06:01;-8.09;52.97
75838;SHT30;64480;52.040;113.502;2022-12-07T21:09:04;-8.09;52.82
75838;SHT30;64480;52.040;113.502;2022-12-07T21:12:08;-8.07;52.86
75838;SHT30;64480;52.040;113.502;2022-12-07T21:15:12;-8.07;52.96
75838;SHT30;64480;52.040;113.502;2022-12-07T21:18:16;-8.03;52.72
75838;SHT30;64480;52.040;113.502;2022-12-07T21:21:19;-8.07;52.68
75838;SHT30;64480;52.040;113.502;2022-12-07T21:24:22;-8.10;52.83